1955 Severe Tropical Cyclone NOT_NAMED (1955049S14134)


IBTrACS version v04r00. Visit IBTrACS website for data access.
Please direct all questions to the IBTrACS Q and A forum

Storm track - Intensity - Wind Radii - Intensity Data - Source Data - All data

Summary Information

Storm ID 1955049S14134
Start Feb 17 23Z
Max Intensity 85 kt (Feb 21 00Z), 960 mb (Feb 21 00Z)
End Feb 24 23Z
ATCF IDs ,SH151955
Track status Best track data.

Storm track plot

Map of storm track

Intensity plots

Map of storm track

Radial wind information

No radial wind information for this storm


Position and Intensity Table

BASIN ISO_TIME_________ NATURE LAT LON WMO PRES BOM PRES DS824 WIND DS824 PRES
degrees north degrees east mb mb kts mb
SI 1955-02-17 23:00:00 NR -13.80 133.60
SI 23:30:00 NR -14.06 133.05 998 998
SI 1955-02-18 00:00:00 TS -14.17 132.96 35 998
SI 03:00:00 TS -14.88 132.34
SI 06:00:00 TS -15.54 131.57
SI 09:00:00 TS -16.11 130.78
SI 11:00:00 TS -16.39 130.20
SI 12:00:00 TS -16.52 129.89
SI 15:00:00 TS -16.86 128.86
SI 18:00:00 TS -17.10 127.77
SI 21:00:00 TS -17.28 126.70
SI 23:00:00 TS -17.35 126.01
SI 1955-02-19 00:00:00 TS -17.38 125.67
SI 01:00:00 TS -17.41 125.34 992 992
SI 03:00:00 TS -17.43 124.69 990
SI 06:00:00 TS -17.45 123.72 988
SI 09:00:00 TS -17.48 122.74 986
SI 09:50:00 TS -17.49 122.48 986 986
SI 11:00:00 TS -17.51 122.11
SI 12:00:00 TS -17.53 121.80
SI 15:00:00 TS -17.59 120.87
SI 18:00:00 TS -17.64 119.97
SI 21:00:00 TS -17.66 119.10
SI 23:00:00 TS -17.66 118.55
SI 1955-02-20 00:00:00 TS -17.66 118.28
SI 01:00:00 TS -17.65 118.02 980 980
SI 03:00:00 TS -17.63 117.51
SI 06:00:00 TS -17.59 116.77
SI 09:00:00 TS -17.57 116.04
SI 11:00:00 TS -17.58 115.55
SI 12:00:00 TS -17.58 115.30
SI 15:00:00 TS -17.61 114.53
SI 18:00:00 TS -17.65 113.75
SI 21:00:00 TS -17.69 112.94
SI 23:00:00 TS -17.72 112.40
SI 1955-02-21 00:00:00 TS -17.75 112.14 85 960
SI 01:00:00 TS -17.78 111.87 960 960
SI 03:00:00 TS -17.85 111.35
SI 06:00:00 TS -17.95 110.57
SI 09:00:00 TS -18.05 109.78
SI 11:00:00 TS -18.12 109.25
SI 12:00:00 TS -18.16 108.99
SI 15:00:00 TS -18.32 108.22
SI 18:00:00 TS -18.48 107.44
SI 21:00:00 TS -18.60 106.64
SI 23:00:00 TS -18.67 106.10
SI 1955-02-22 00:00:00 TS -18.70 105.82 85 960
SI 01:00:00 TS -18.73 105.56 960 960
SI 03:00:00 TS -18.77 105.05
SI 06:00:00 TS -18.81 104.30
SI 09:00:00 TS -18.86 103.50
SI 11:00:00 TS -18.89 102.97
SI 12:00:00 TS -18.90 102.71
SI 15:00:00 TS -18.95 101.93
SI 18:00:00 TS -18.98 101.18
SI 21:00:00 TS -18.98 100.44
SI 23:00:00 TS -18.99 100.00
SI 1955-02-23 00:00:00 TS -19.01 99.81
SI 03:00:00 TS -19.12 99.34
SI 06:00:00 TS -19.30 99.02
SI 09:00:00 TS -19.53 98.79
SI 11:00:00 TS -19.70 98.67
SI 12:00:00 TS -19.80 98.60
SI 15:00:00 TS -20.08 98.38
SI 18:00:00 TS -20.40 98.19
SI 21:00:00 TS -20.74 98.06
SI 23:00:00 TS -20.98 98.01
SI 1955-02-24 00:00:00 TS -21.10 98.00
SI 03:00:00 TS -21.50 98.01
SI 06:00:00 TS -21.89 98.09
SI 09:00:00 TS -22.25 98.18
SI 11:00:00 TS -22.49 98.26
SI 12:00:00 TS -22.61 98.32
SI 15:00:00 TS -22.99 98.50
SI 18:00:00 TS -23.39 98.70
SI 21:00:00 NR -23.75 98.88
SI 23:00:00 NR -24.00 99.00

Source Information

Agency Information
USA bsh151955.txt
TOKYO
CMA
HKO
NEWDELHI
REUNION
BOM IDCKMSTM0S.csv:Line=1945:unnamed
NADI
WELLINGTON
DS824 aus_area.dat:209:NOT NAMED
TD9636 cons_worldwide_trop_cyclone_18710101-19891231-006:Line=4208
TD9635
NEUMANN
MLC

All available IBTrACS Data

SEASON BASIN SUBBASIN ISO_TIME_________ NATURE LAT LON WMO PRES WMO AGENCY DIST2LAND LANDFALL IFLAG USA AGENCY USA ATCF_ID USA LAT USA LON USA SSHS BOM LAT BOM LON BOM PRES BOM PRES_METHOD DS824 LAT DS824 LON DS824 STAGE DS824 WIND DS824 PRES TD9636 LAT TD9636 LON TD9636 STAGE STORM SPEED STORM DIR
Year degrees north degrees east mb km km degrees north degrees east 1 degrees north degrees east mb degrees north degrees east kts mb degrees north degrees east kts degrees
1955 SI WA 1955-02-17 23:00:00 NR -13.80 133.60 0 0 __________O___ -1 -13.80 133.60 7 72 244
1955 SI WA 23:30:00 NR -14.06 133.05 998 bom 0 0 ______O___P___ -1 -14.30 132.20 998 -13.94 133.47 7 43 239
1955 SI WA 1955-02-18 00:00:00 TS -14.17 132.96 0 0 O_____P__OP___ jtwc_sh SH151955 -14.10 133.40 -1 -14.34 132.12 -14.30 132.20 TC 35 998 -14.08 133.35 7 18 220
1955 SI WA 03:00:00 TS -14.88 132.34 0 0 P_____P___P___ SH151955 -15.01 132.55 -1 -14.58 131.62 TC -14.91 132.57 7 19 225
1955 SI WA 06:00:00 TS -15.54 131.57 0 0 O_____P___P___ jtwc_sh SH151955 -15.80 131.70 -1 -14.82 131.10 TC -15.67 131.74 7 19 231
1955 SI WA 09:00:00 TS -16.11 130.78 0 0 P_____P___P___ SH151955 -16.38 130.84 -1 -15.07 130.53 TC -16.34 130.85 7 19 237
1955 SI WA 11:00:00 TS -16.39 130.20 0 0 P_____P___O___ SH151955 -16.67 130.23 -1 -15.24 130.12 TC -16.70 130.20 7 19 245
1955 SI WA 12:00:00 TS -16.52 129.89 0 0 O_____P___P___ jtwc_sh SH151955 -16.80 129.90 -1 -15.32 129.91 TC -16.85 129.86 7 21 250
1955 SI WA 15:00:00 TS -16.86 128.86 0 0 P_____P___P___ SH151955 -17.16 128.77 -1 -15.59 129.20 TC -17.21 128.77 7 21 254
1955 SI WA 18:00:00 TS -17.10 127.77 0 0 O_____P___P___ jtwc_sh SH151955 -17.40 127.60 -1 -15.87 128.39 TC -17.44 127.63 7 21 258
1955 SI WA 21:00:00 TS -17.28 126.70 0 0 P_____P___P___ SH151955 -17.55 126.51 -1 -16.17 127.46 TC -17.56 126.51 7 20 262
1955 SI WA 23:00:00 TS -17.35 126.01 0 0 P_____P___O___ SH151955 -17.59 125.83 -1 -16.38 126.77 TC -17.60 125.80 7 20 264
1955 SI WA 1955-02-19 00:00:00 TS -17.38 125.67 0 0 O_____P___P___ jtwc_sh SH151955 -17.60 125.50 -1 -16.49 126.39 TC -17.62 125.47 7 19 265
1955 SI WA 01:00:00 TS -17.41 125.34 992 bom 0 0 P_____O___P___ SH151955 -17.60 125.18 -1 -16.60 126.00 992 TC -17.63 125.15 7 19 267
1955 SI WA 03:00:00 TS -17.43 124.69 0 0 P_____P___P___ SH151955 -17.56 124.58 -1 -16.82 125.17 990 TC -17.63 124.53 7 19 268
1955 SI WA 06:00:00 TS -17.45 123.72 0 0 O_____P___P___ jtwc_sh SH151955 -17.50 123.70 -1 -17.15 123.84 988 TC -17.59 123.64 7 19 268
1955 SI WA 09:00:00 TS -17.48 122.74 0 0 P_____P___P___ SH151955 -17.48 122.80 -1 -17.43 122.54 986 TC -17.53 122.77 7 19 268
1955 SI WA 09:50:00 TS -17.49 122.48 986 bom 0 0 P_____O___P___ SH151955 -17.49 122.55 -1 -17.50 122.20 986 TC -17.52 122.53 7 18 267
1955 SI WA 11:00:00 TS -17.51 122.11 10 10 P_____P___O___ SH151955 -17.49 122.20 -1 -17.58 121.75 TC -17.50 122.20 7 18 267
1955 SI WA 12:00:00 TS -17.53 121.80 33 33 O_____P___P___ jtwc_sh SH151955 -17.50 121.90 -1 -17.64 121.39 TC -17.50 121.90 7 18 266
1955 SI WA 15:00:00 TS -17.59 120.87 127 127 P_____P___P___ SH151955 -17.55 120.99 -1 -17.77 120.36 TC -17.53 121.00 7 17 266
1955 SI WA 18:00:00 TS -17.64 119.97 211 211 O_____P___P___ jtwc_sh SH151955 -17.60 120.10 -1 -17.84 119.42 TC -17.56 120.11 7 17 267
1955 SI WA 21:00:00 TS -17.66 119.10 267 267 P_____P___P___ SH151955 -17.61 119.23 -1 -17.88 118.56 TC -17.59 119.25 7 16 269
1955 SI WA 23:00:00 TS -17.66 118.55 275 275 P_____P___O___ SH151955 -17.61 118.67 -1 -17.89 118.02 TC -17.60 118.70 7 16 270
1955 SI WA 1955-02-20 00:00:00 TS -17.66 118.28 281 281 O_____P___P___ jtwc_sh SH151955 -17.60 118.40 -1 -17.90 117.76 TC -17.59 118.44 7 15 272
1955 SI WA 01:00:00 TS -17.65 118.02 980 bom 302 302 P_____O___P___ SH151955 -17.59 118.14 -1 -17.90 117.50 980 TC -17.59 118.18 7 15 273
1955 SI WA 03:00:00 TS -17.63 117.51 319 319 P_____P___P___ SH151955 -17.55 117.63 -1 -17.91 116.97 TC -17.56 117.68 7 14 273
1955 SI WA 06:00:00 TS -17.59 116.77 335 335 O_____P___P___ jtwc_sh SH151955 -17.50 116.90 -1 -17.92 116.22 TC -17.53 116.94 7 14 272
1955 SI WA 09:00:00 TS -17.57 116.04 343 343 P_____P___P___ SH151955 -17.48 116.16 -1 -17.91 115.52 TC -17.50 116.20 7 14 271
1955 SI WA 11:00:00 TS -17.58 115.55 358 358 P_____P___O___ SH151955 -17.49 115.66 -1 -17.90 115.07 TC -17.50 115.70 7 14 270
1955 SI WA 12:00:00 TS -17.58 115.30 366 366 O_____P___P___ jtwc_sh SH151955 -17.50 115.40 -1 -17.90 114.85 TC -17.50 115.43 7 15 268
1955 SI WA 15:00:00 TS -17.61 114.53 407 407 P_____P___P___ SH151955 -17.54 114.62 -1 -17.88 114.20 TC -17.53 114.62 7 15 267
1955 SI WA 18:00:00 TS -17.65 113.75 452 443 O_____P___P___ jtwc_sh SH151955 -17.60 113.80 -1 -17.87 113.55 TC -17.58 113.79 7 15 267
1955 SI WA 21:00:00 TS -17.69 112.94 483 483 P_____P___P___ SH151955 -17.64 112.95 -1 -17.87 112.90 TC -17.65 112.95 7 15 267
1955 SI WA 23:00:00 TS -17.72 112.40 498 498 P_____P___O___ SH151955 -17.68 112.38 -1 -17.88 112.46 TC -17.70 112.40 7 15 265
1955 SI WA 1955-02-21 00:00:00 TS -17.75 112.14 510 499 O_____P__OP___ jtwc_sh SH151955 -17.70 112.10 -1 -17.89 112.23 -17.90 112.20 TC 85 960 -17.72 112.13 7 15 263
1955 SI WA 01:00:00 TS -17.78 111.87 960 bom 508 508 P_____O__PP___ SH151955 -17.73 111.83 -1 -17.90 112.00 960 4 -17.94 111.94 TC -17.75 111.86 7 15 263
1955 SI WA 03:00:00 TS -17.85 111.35 533 528 P_____P__PP___ SH151955 -17.79 111.29 -1 -17.93 111.53 -18.01 111.42 TC -17.81 111.32 7 15 262
1955 SI WA 06:00:00 TS -17.95 110.57 562 562 O_____P__PP___ jtwc_sh SH151955 -17.90 110.50 -1 -18.00 110.79 -18.12 110.63 TC -17.90 110.52 7 15 262
1955 SI WA 09:00:00 TS -18.05 109.78 618 618 P_____P__PP___ SH151955 -17.98 109.69 -1 -18.08 110.02 -18.22 109.85 TC -18.02 109.72 7 15 263
1955 SI WA 11:00:00 TS -18.12 109.25 657 657 P_____P__PO___ SH151955 -18.06 109.16 -1 -18.15 109.50 -18.29 109.32 TC -18.10 109.20 7 15 261
1955 SI WA 12:00:00 TS -18.16 108.99 666 666 O_____P__PP___ jtwc_sh SH151955 -18.10 108.90 -1 -18.18 109.23 -18.33 109.06 TC -18.15 108.94 7 15 258
1955 SI WA 15:00:00 TS -18.32 108.22 727 727 P_____P__PP___ SH151955 -18.30 108.15 -1 -18.29 108.41 -18.42 108.27 TC -18.30 108.16 7 15 258
1955 SI WA 18:00:00 TS -18.48 107.44 786 786 O_____P__PP___ jtwc_sh SH151955 -18.50 107.40 -1 -18.41 107.58 -18.52 107.48 TC -18.47 107.39 7 15 259
1955 SI WA 21:00:00 TS -18.60 106.64 854 854 P_____P__PP___ SH151955 -18.62 106.60 -1 -18.53 106.74 -18.61 106.69 TC -18.62 106.61 7 15 262
1955 SI WA 23:00:00 TS -18.67 106.10 893 893 P_____P__PO___ SH151955 -18.68 106.06 -1 -18.62 106.17 -18.67 106.16 TC -18.70 106.10 7 16 263
1955 SI WA 1955-02-22 00:00:00 TS -18.70 105.82 920 920 O_____P__OP___ jtwc_sh SH151955 -18.70 105.80 -1 -18.66 105.88 -18.70 105.90 TC 85 960 -18.73 105.84 7 15 264
1955 SI WA 01:00:00 TS -18.73 105.56 960 bom 939 939 P_____O___P___ SH151955 -18.72 105.55 -1 -18.70 105.60 960 TC -18.76 105.58 7 15 265
1955 SI WA 03:00:00 TS -18.77 105.05 980 980 P_________P___ SH151955 -18.76 105.05 -1 TC -18.80 105.06 7 14 266
1955 SI WA 06:00:00 TS -18.81 104.30 1056 1056 O_________P___ jtwc_sh SH151955 -18.80 104.30 -1 TC -18.85 104.28 7 15 267
1955 SI WA 09:00:00 TS -18.86 103.50 1128 1128 P_________P___ SH151955 -18.85 103.50 -1 TC -18.88 103.51 7 15 267
1955 SI WA 11:00:00 TS -18.89 102.97 1176 1176 P_________O___ SH151955 -18.88 102.96 -1 TC -18.90 103.00 7 15 267
1955 SI WA 12:00:00 TS -18.90 102.71 1205 1205 O_________P___ jtwc_sh SH151955 -18.90 102.70 -1 TC -18.90 102.73 7 15 267
1955 SI WA 15:00:00 TS -18.95 101.93 1284 1284 P_________P___ SH151955 -18.96 101.94 -1 TC -18.91 101.90 7 14 267
1955 SI WA 18:00:00 TS -18.98 101.18 1349 1349 O_________P___ jtwc_sh SH151955 -19.00 101.20 -1 TC -18.92 101.11 7 14 269
1955 SI WA 21:00:00 TS -18.98 100.44 1429 1429 P_________P___ SH151955 -18.99 100.45 -1 TC -18.95 100.40 7 13 270
1955 SI WA 23:00:00 TS -18.99 100.00 1468 1468 P_________O___ SH151955 -18.99 100.00 -1 TC -19.00 100.00 7 12 267
1955 SI WA 1955-02-23 00:00:00 TS -19.01 99.81 1481 1481 O_________P___ jtwc_sh SH151955 -19.00 99.80 -1 -19.03 99.83 7 9 258
1955 SI WA 03:00:00 TS -19.12 99.34 1517 1517 P_________P___ SH151955 -19.11 99.33 -1 -19.15 99.40 7 8 248
1955 SI WA 06:00:00 TS -19.30 99.02 1551 1551 O_________P___ jtwc_sh SH151955 -19.30 99.00 -1 -19.32 99.08 7 7 232
1955 SI WA 09:00:00 TS -19.53 98.79 1573 1570 P_________P___ SH151955 -19.53 98.77 -1 -19.53 98.84 7 6 220
1955 SI WA 11:00:00 TS -19.70 98.67 1577 1577 P_________O___ SH151955 -19.71 98.66 -1 -19.70 98.70 7 6 213
1955 SI WA 12:00:00 TS -19.80 98.60 1585 1582 O_________P___ jtwc_sh SH151955 -19.80 98.60 -1 -19.79 98.61 7 7 216
1955 SI WA 15:00:00 TS -20.08 98.38 1597 1597 P_________P___ SH151955 -20.09 98.39 -1 -20.07 98.37 7 7 212
1955 SI WA 18:00:00 TS -20.40 98.19 1610 1608 O_________P___ jtwc_sh SH151955 -20.40 98.20 -1 -20.40 98.17 7 7 205
1955 SI WA 21:00:00 TS -20.74 98.06 1614 1612 P_________P___ SH151955 -20.73 98.06 -1 -20.76 98.04 7 7 196
1955 SI WA 23:00:00 TS -20.98 98.01 1619 1617 P_________O___ SH151955 -20.97 98.01 -1 -21.00 98.00 7 7 189
1955 SI WA 1955-02-24 00:00:00 TS -21.10 98.00 1617 1608 O_________P___ jtwc_sh SH151955 -21.10 98.00 -1 -21.12 97.99 7 8 0
1955 SI WA 03:00:00 TS -21.50 98.01 1608 1587 P_________P___ SH151955 -21.50 98.02 -1 -21.48 98.00 7 8 173
1955 SI WA 06:00:00 TS -21.89 98.09 1587 1570 O_________P___ jtwc_sh SH151955 -21.90 98.10 -1 -21.86 98.08 7 8 168
1955 SI WA 09:00:00 TS -22.25 98.18 1570 1553 P_________P___ SH151955 -22.25 98.18 -1 -22.24 98.20 7 7 165
1955 SI WA 11:00:00 TS -22.49 98.26 1553 1551 P_________O___ SH151955 -22.48 98.25 -1 -22.50 98.30 7 8 160
1955 SI WA 12:00:00 TS -22.61 98.32 1551 1523 O_________P___ jtwc_sh SH151955 -22.60 98.30 -1 -22.63 98.35 7 8 157
1955 SI WA 15:00:00 TS -22.99 98.50 1523 1497 P_________P___ SH151955 -22.99 98.48 -1 -23.01 98.52 7 9 156
1955 SI WA 18:00:00 TS -23.39 98.70 1497 1472 O_________P___ jtwc_sh SH151955 -23.40 98.70 -1 -23.38 98.69 7 8 155
1955 SI WA 21:00:00 NR -23.75 98.88 1471 1457 __________P___ SH151955 -1 -23.75 98.88 7 8 156
1955 SI WA 23:00:00 NR -24.00 99.00 1457 __________O___ SH151955 -1 -24.00 99.00 7 8 156